Time;durP1;ratioP1;P1;durP2;ratioP2;P2;SDS_P1;SDS_P2;PMS_P1;PMS_P2;Temp;Humidity;BMP_temperature;BMP_pressure;BME280_temperature;BME280_humidity;BME280_pressure;Samples;Min_cycle;Max_cycle;Signal;HPM_P1;HPM_P2
2022/03/24 00:00:17;;;;;;;46.47;25.45;;;;;;;5.42;64.61;102937.00;5020627;28;20185;-78
2022/03/24 00:02:43;;;;;;;48.47;25.85;;;;;;;5.37;64.65;102932.38;5022100;28;20024;-78
2022/03/24 00:05:11;;;;;;;49.80;26.40;;;;;;;5.31;64.50;102931.88;5020906;28;20046;-78
2022/03/24 00:07:36;;;;;;;46.67;26.52;;;;;;;5.26;64.46;102935.81;5021744;28;20172;-78
2022/03/24 00:10:01;;;;;;;52.92;27.20;;;;;;;5.27;63.98;102932.44;5022158;28;20029;-78
2022/03/24 00:12:27;;;;;;;48.65;26.42;;;;;;;5.26;65.44;102929.72;5022772;28;20026;-78
2022/03/24 00:14:52;;;;;;;50.10;26.33;;;;;;;5.25;65.22;102933.09;5021211;28;20184;-78
2022/03/24 00:17:18;;;;;;;47.80;25.80;;;;;;;5.21;65.18;102921.59;5021087;28;20033;-77
2022/03/24 00:19:43;;;;;;;54.95;28.05;;;;;;;5.19;64.66;102931.81;5022335;28;20311;-77
2022/03/24 00:22:09;;;;;;;54.03;28.25;;;;;;;5.19;64.54;102918.00;5022372;28;20269;-77
2022/03/24 00:24:34;;;;;;;57.50;28.75;;;;;;;5.25;64.66;102927.94;5022160;28;20034;-76
2022/03/24 00:26:59;;;;;;;55.90;28.58;;;;;;;5.24;63.97;102916.66;5021975;28;20069;-76
2022/03/24 00:29:25;;;;;;;53.90;28.65;;;;;;;5.28;64.32;102923.91;5021205;28;20041;-76
2022/03/24 00:31:50;;;;;;;52.90;27.42;;;;;;;5.26;64.53;102920.31;5022594;28;20057;-76
2022/03/24 00:34:15;;;;;;;46.17;26.65;;;;;;;5.24;65.76;102919.25;5021251;28;20030;-76
2022/03/24 00:36:41;;;;;;;51.85;27.42;;;;;;;5.21;65.10;102916.44;5021955;28;20228;-76
2022/03/24 00:39:06;;;;;;;49.38;27.20;;;;;;;5.17;64.71;102917.91;5021603;28;20030;-76
2022/03/24 00:41:32;;;;;;;50.42;25.80;;;;;;;5.13;64.95;102909.78;5024452;28;20033;-76
2022/03/24 00:43:57;;;;;;;46.13;24.95;;;;;;;5.10;64.53;102919.84;5025613;28;20288;-76
2022/03/24 00:46:23;;;;;;;49.75;26.95;;;;;;;5.07;64.18;102912.78;5025266;28;20110;-76
2022/03/24 00:48:49;;;;;;;49.33;26.17;;;;;;;5.03;64.73;102913.31;5025389;28;20030;-76
2022/03/24 00:51:15;;;;;;;50.03;25.70;;;;;;;5.03;64.53;102909.03;5025019;28;20034;-76
2022/03/24 00:53:41;;;;;;;49.75;26.25;;;;;;;5.03;64.95;102916.78;5025687;28;20058;-76
2022/03/24 00:56:06;;;;;;;53.25;27.00;;;;;;;5.02;64.71;102914.97;5025388;28;20167;-76
2022/03/24 00:58:31;;;;;;;53.80;27.92;;;;;;;5.01;65.61;102909.69;5025335;28;20265;-76
2022/03/24 01:00:57;;;;;;;47.53;25.23;;;;;;;4.94;66.56;102913.47;5023309;28;20026;-76
2022/03/24 01:03:23;;;;;;;48.80;24.85;;;;;;;4.84;65.38;102904.09;5020669;28;20887;-76
2022/03/24 01:05:48;;;;;;;49.95;26.08;;;;;;;4.75;65.56;102905.03;5022149;28;20264;-76
2022/03/24 01:08:16;;;;;;;53.75;25.98;;;;;;;4.63;66.07;102903.25;5023714;28;20095;-76
2022/03/24 01:10:42;;;;;;;50.92;27.38;;;;;;;4.59;66.13;102906.38;5020871;28;20075;-76
2022/03/24 01:13:08;;;;;;;52.60;29.60;;;;;;;4.63;66.54;102898.09;5021479;28;20022;-76
2022/03/24 01:15:34;;;;;;;57.28;29.15;;;;;;;4.66;66.91;102906.09;5020861;28;20026;-76
2022/03/24 01:18:00;;;;;;;53.95;27.67;;;;;;;4.64;66.26;102897.31;5021822;28;20316;-78
2022/03/24 01:20:27;;;;;;;52.53;27.90;;;;;;;4.61;66.05;102904.81;5024869;28;20029;-78
2022/03/24 01:22:53;;;;;;;55.03;28.27;;;;;;;4.61;66.01;102898.75;5023906;28;20080;-78
2022/03/24 01:25:18;;;;;;;53.30;27.88;;;;;;;4.61;65.84;102893.59;5024011;28;20227;-78
2022/03/24 01:27:44;;;;;;;52.22;27.80;;;;;;;4.64;66.03;102899.00;5017085;28;20050;-78
2022/03/24 01:30:10;;;;;;;53.65;27.33;;;;;;;4.61;66.71;102899.66;5021315;28;20092;-78
2022/03/24 01:32:36;;;;;;;50.38;27.42;;;;;;;4.54;66.00;102887.03;5023346;28;20038;-78
2022/03/24 01:35:07;;;;;;;44.13;25.88;;;;;;;4.50;66.70;102891.06;5023566;28;20018;-78
2022/03/24 01:37:33;;;;;;;48.47;25.88;;;;;;;4.47;66.81;102892.47;5023596;28;20024;-78
2022/03/24 01:39:58;;;;;;;47.47;24.85;;;;;;;4.43;66.96;102888.75;5022112;28;20027;-78
2022/03/24 01:42:26;;;;;;;51.63;25.73;;;;;;;4.34;66.99;102883.72;5024091;28;20076;-78
2022/03/24 01:44:52;;;;;;;46.10;26.08;;;;;;;4.26;66.96;102881.28;5017872;28;20029;-78
2022/03/24 01:47:18;;;;;;;47.28;25.30;;;;;;;4.24;67.01;102890.56;5020221;28;20308;-76
2022/03/24 01:49:48;;;;;;;49.63;26.65;;;;;;;4.25;66.77;102882.97;5022468;28;20041;-76
2022/03/24 01:52:17;;;;;;;44.03;23.60;;;;;;;4.23;67.43;102878.44;5022771;28;20033;-76
2022/03/24 01:54:51;;;;;;;43.75;23.88;;;;;;;4.12;67.38;102875.00;5018060;28;20036;-76
2022/03/24 01:57:17;;;;;;;47.75;24.98;;;;;;;4.02;67.59;102875.91;5022628;28;20025;-76
2022/03/24 01:59:43;;;;;;;53.35;27.52;;;;;;;3.95;68.00;102866.78;5014189;28;20302;-76
2022/03/24 02:02:10;;;;;;;46.47;25.13;;;;;;;3.93;68.54;102870.88;5021955;28;20025;-76
2022/03/24 02:04:36;;;;;;;49.75;25.98;;;;;;;3.89;68.34;102866.22;5023420;28;20021;-76
2022/03/24 02:07:05;;;;;;;50.88;26.90;;;;;;;3.90;68.24;102864.56;5020329;28;20348;-76
2022/03/24 02:09:32;;;;;;;50.08;27.27;;;;;;;3.92;67.98;102861.31;5019878;28;20049;-76
2022/03/24 02:11:57;;;;;;;51.15;26.92;;;;;;;3.89;67.98;102871.38;5021804;28;20025;-76
2022/03/24 02:14:23;;;;;;;53.90;26.98;;;;;;;3.89;68.57;102870.50;5021002;28;20284;-76
2022/03/24 02:16:49;;;;;;;46.60;25.02;;;;;;;3.88;67.98;102869.63;5020931;28;20057;-76
2022/03/24 02:19:16;;;;;;;51.78;26.92;;;;;;;3.84;68.24;102867.53;5022616;28;20111;-76
2022/03/24 02:21:45;;;;;;;55.67;28.92;;;;;;;3.83;68.89;102866.63;5020662;28;20029;-76
2022/03/24 02:24:13;;;;;;;53.55;27.25;;;;;;;3.86;68.77;102865.97;5022553;28;20037;-76
2022/03/24 02:26:40;;;;;;;53.33;28.33;;;;;;;3.82;69.02;102870.00;5020911;28;20042;-76
2022/03/24 02:29:06;;;;;;;50.00;26.42;;;;;;;3.80;69.36;102855.16;5021800;28;20075;-76
2022/03/24 02:31:38;;;;;;;56.85;28.15;;;;;;;3.78;68.98;102867.94;5019847;28;20295;-76
2022/03/24 02:36:53;;;;;;;50.33;26.13;;;;;;;3.70;69.29;102868.94;5022217;28;20080;-76
2022/03/24 02:39:19;;;;;;;50.92;26.92;;;;;;;3.67;69.57;102865.22;5021439;28;20156;-76
2022/03/24 02:41:56;;;;;;;51.67;26.65;;;;;;;3.69;69.38;102866.25;5021649;28;20045;-76
2022/03/24 02:44:23;;;;;;;49.88;26.73;;;;;;;3.70;69.57;102868.06;5022120;28;20288;-76
2022/03/24 02:46:51;;;;;;;51.60;27.17;;;;;;;3.66;69.23;102866.88;5021087;28;20092;-76
2022/03/24 02:49:19;;;;;;;49.78;26.08;;;;;;;3.65;69.46;102870.25;5021586;28;20084;-76
2022/03/24 02:51:45;;;;;;;49.97;26.95;;;;;;;3.58;68.72;102862.78;5021713;28;20037;-76
2022/03/24 02:54:11;;;;;;;50.53;26.15;;;;;;;3.53;69.70;102864.94;5020947;28;20177;-76
2022/03/24 02:56:37;;;;;;;51.15;25.85;;;;;;;3.52;69.36;102858.00;5021677;28;20088;-76
2022/03/24 02:59:04;;;;;;;50.03;24.73;;;;;;;3.45;69.04;102851.41;5021887;28;20042;-76
2022/03/24 03:01:30;;;;;;;47.08;25.38;;;;;;;3.40;69.90;102864.69;5022163;28;20040;-76
2022/03/24 03:03:56;;;;;;;51.35;27.13;;;;;;;3.38;69.89;102858.50;5021399;28;20044;-76
2022/03/24 03:06:22;;;;;;;45.97;24.05;;;;;;;3.30;69.35;102863.91;5022933;28;20022;-76
2022/03/24 03:08:49;;;;;;;48.55;24.73;;;;;;;3.24;69.91;102868.50;5022595;28;20033;-76
2022/03/24 03:11:15;;;;;;;48.00;25.17;;;;;;;3.22;70.23;102862.34;5022532;28;20050;-76
2022/03/24 03:13:41;;;;;;;49.22;25.65;;;;;;;3.24;71.06;102865.03;5021755;28;20204;-77
2022/03/24 03:16:06;;;;;;;51.53;26.25;;;;;;;3.24;70.30;102865.94;5022388;28;20018;-77
2022/03/24 03:18:32;;;;;;;49.95;26.88;;;;;;;3.20;70.54;102858.75;5020732;28;20257;-78
2022/03/24 03:20:58;;;;;;;50.30;24.85;;;;;;;3.16;70.52;102861.81;5022962;28;20018;-78
2022/03/24 03:23:24;;;;;;;48.85;24.20;;;;;;;3.12;70.51;102859.75;5022170;28;20084;-78
2022/03/24 03:25:49;;;;;;;48.88;26.20;;;;;;;3.10;70.93;102863.84;5022483;28;20053;-78
2022/03/24 03:28:14;;;;;;;48.28;25.23;;;;;;;3.08;70.32;102865.38;5020198;28;20207;-78
2022/03/24 03:30:40;;;;;;;48.22;25.85;;;;;;;3.07;70.59;102858.41;5020966;28;20034;-78
2022/03/24 03:33:06;;;;;;;48.95;25.00;;;;;;;3.03;70.85;102864.09;5022005;28;20223;-78
2022/03/24 03:35:31;;;;;;;47.45;23.85;;;;;;;3.00;70.86;102861.25;5019131;28;20041;-78
2022/03/24 03:37:57;;;;;;;52.33;27.13;;;;;;;2.98;71.73;102855.97;5020431;28;20048;-78
2022/03/24 03:40:22;;;;;;;53.42;26.35;;;;;;;3.05;71.40;102865.13;5021209;28;20042;-78
2022/03/24 03:42:51;;;;;;;47.17;24.58;;;;;;;3.09;71.70;102862.06;5021513;28;20129;-78
2022/03/24 03:45:17;;;;;;;51.58;25.95;;;;;;;3.11;71.00;102864.00;5021301;28;20034;-78
2022/03/24 03:47:42;;;;;;;58.13;27.13;;;;;;;3.11;71.39;102860.50;5021037;28;20160;-78
2022/03/24 03:50:07;;;;;;;55.70;27.30;;;;;;;3.08;71.44;102867.97;5014902;28;20082;-78
2022/03/24 03:52:33;;;;;;;59.13;27.02;;;;;;;3.06;71.77;102862.69;5020719;28;20022;-78
2022/03/24 03:54:58;;;;;;;45.90;23.70;;;;;;;3.04;71.70;102871.03;5019179;28;20029;-78
2022/03/24 03:57:23;;;;;;;48.67;25.05;;;;;;;2.97;71.70;102859.31;5018455;28;20033;-78
2022/03/24 03:59:48;;;;;;;49.53;25.33;;;;;;;2.93;72.52;102871.00;5020653;28;20077;-78
2022/03/24 04:02:14;;;;;;;52.90;25.45;;;;;;;2.92;72.82;102858.91;5021262;28;20026;-78
2022/03/24 04:04:39;;;;;;;50.15;25.48;;;;;;;2.90;72.47;102867.28;5021606;28;20025;-78
2022/03/24 04:07:05;;;;;;;51.30;24.60;;;;;;;2.86;72.82;102868.66;5020090;28;20033;-78
2022/03/24 04:09:30;;;;;;;53.97;25.92;;;;;;;2.85;72.81;102869.44;5018537;28;20252;-78
2022/03/24 04:11:55;;;;;;;50.92;25.38;;;;;;;2.79;73.05;102863.75;5019958;28;20284;-78
2022/03/24 04:14:21;;;;;;;52.28;25.48;;;;;;;2.77;73.38;102868.75;5020044;28;20049;-78
2022/03/24 04:16:46;;;;;;;52.80;26.30;;;;;;;2.74;73.19;102873.66;5017337;28;20034;-78
2022/03/24 04:19:12;;;;;;;50.08;25.92;;;;;;;2.71;73.07;102869.88;5020109;28;20083;-78
2022/03/24 04:21:38;;;;;;;54.00;26.05;;;;;;;2.70;73.53;102868.09;5020611;28;20022;-78
2022/03/24 04:24:04;;;;;;;52.30;26.35;;;;;;;2.73;72.96;102868.38;5020497;28;20018;-78
2022/03/24 04:26:29;;;;;;;48.58;25.10;;;;;;;2.73;73.47;102865.78;5020855;28;20061;-76
2022/03/24 04:28:55;;;;;;;50.65;26.35;;;;;;;2.71;73.69;102868.22;5019580;28;20026;-76
2022/03/24 04:31:22;;;;;;;46.90;25.45;;;;;;;2.67;72.83;102868.72;5015230;28;20030;-76
2022/03/24 04:33:48;;;;;;;48.58;24.42;;;;;;;2.64;72.04;102870.13;5020938;28;20085;-76
2022/03/24 04:36:13;;;;;;;52.00;25.77;;;;;;;2.61;71.96;102868.19;5019311;28;20064;-76
2022/03/24 04:38:39;;;;;;;52.15;24.63;;;;;;;2.61;72.44;102863.03;5019101;28;20045;-76
2022/03/24 04:41:05;;;;;;;48.45;24.85;;;;;;;2.61;72.54;102858.78;5019568;28;20040;-76
2022/03/24 04:43:32;;;;;;;46.50;24.40;;;;;;;2.60;73.03;102864.69;5020313;28;20030;-76
2022/03/24 04:45:57;;;;;;;39.20;21.60;;;;;;;2.54;72.84;102877.03;5031388;28;20068;-76
2022/03/24 04:48:23;;;;;;;48.67;23.95;;;;;;;2.47;72.69;102866.94;5020641;28;20029;-76
2022/03/24 04:50:48;;;;;;;47.05;24.98;;;;;;;2.45;73.27;102868.50;5029774;28;20042;-76
2022/03/24 04:53:17;;;;;;;51.78;26.27;;;;;;;2.43;72.96;102873.50;5021192;28;20026;-76
2022/03/24 04:55:44;;;;;;;49.75;26.75;;;;;;;2.44;73.16;102876.97;5019756;28;20028;-76
2022/03/24 04:58:10;;;;;;;47.70;24.77;;;;;;;2.39;73.42;102875.66;5019331;28;20068;-76
2022/03/24 05:00:36;;;;;;;45.42;24.95;;;;;;;2.40;73.37;102875.81;5017870;28;20022;-76
2022/03/24 05:03:01;;;;;;;48.92;26.27;;;;;;;2.41;72.87;102879.28;5018443;28;20203;-76
2022/03/24 05:05:26;;;;;;;48.13;25.83;;;;;;;2.46;72.94;102871.97;5018621;28;20200;-76
2022/03/24 05:07:51;;;;;;;48.30;25.05;;;;;;;2.43;73.71;102878.66;5017333;28;20030;-76
2022/03/24 05:10:17;;;;;;;45.22;23.70;;;;;;;2.38;73.06;102876.44;5019142;28;20056;-76
2022/03/24 05:12:42;;;;;;;47.92;24.80;;;;;;;2.33;73.48;102875.09;5019638;28;20014;-76
2022/03/24 05:15:10;;;;;;;49.78;24.05;;;;;;;2.29;73.63;102879.09;5018839;28;20408;-76
2022/03/24 05:17:36;;;;;;;50.38;25.00;;;;;;;2.28;73.22;102884.97;5020286;28;20034;-76
2022/03/24 05:20:01;;;;;;;48.05;25.52;;;;;;;2.29;73.14;102881.66;5020769;28;20045;-76
2022/03/24 05:22:27;;;;;;;50.55;25.38;;;;;;;2.34;73.14;102879.50;5020563;28;20224;-76
2022/03/24 05:24:52;;;;;;;50.28;24.95;;;;;;;2.35;73.30;102883.88;5013883;28;20068;-76
2022/03/24 05:27:17;;;;;;;45.58;22.63;;;;;;;2.31;73.29;102882.69;5021592;28;20510;-76
2022/03/24 05:29:43;;;;;;;45.83;23.77;;;;;;;2.32;73.29;102886.16;5023473;28;20022;-76
2022/03/24 05:32:08;;;;;;;49.00;24.65;;;;;;;2.31;73.17;102889.50;5023942;28;20050;-76
2022/03/24 05:34:33;;;;;;;48.78;25.33;;;;;;;2.31;73.53;102886.94;5023802;28;20269;-76
2022/03/24 05:36:59;;;;;;;46.35;23.80;;;;;;;2.29;72.89;102889.38;5023178;28;20053;-76
2022/03/24 05:39:25;;;;;;;51.45;24.48;;;;;;;2.29;72.79;102891.94;5023485;28;20076;-76
2022/03/24 05:41:50;;;;;;;49.28;24.17;;;;;;;2.25;73.51;102883.03;5021376;28;20145;-76
2022/03/24 05:44:15;;;;;;;47.55;23.05;;;;;;;2.22;73.57;102890.47;5024283;28;20042;-76
2022/03/24 05:46:44;;;;;;;48.85;24.60;;;;;;;2.20;73.99;102889.44;5022738;28;20041;-76
2022/03/24 05:49:14;;;;;;;51.95;24.25;;;;;;;2.20;74.13;102888.53;5016340;28;20042;-76
2022/03/24 05:51:42;;;;;;;47.97;23.77;;;;;;;2.18;74.55;102890.97;5023827;28;20037;-76
2022/03/24 05:54:09;;;;;;;48.90;24.90;;;;;;;2.16;74.54;102892.50;5023669;28;20018;-76
2022/03/24 05:56:35;;;;;;;49.08;24.63;;;;;;;2.20;74.43;102894.59;5022017;28;20045;-76
2022/03/24 05:59:00;;;;;;;47.38;23.52;;;;;;;2.25;73.68;102895.91;5019815;28;20076;-76
2022/03/24 06:01:25;;;;;;;43.13;23.17;;;;;;;2.28;74.20;102891.81;5019125;28;20041;-76
2022/03/24 06:03:51;;;;;;;49.90;24.65;;;;;;;2.31;73.90;102894.66;5023004;28;20034;-76
2022/03/24 06:06:18;;;;;;;50.33;24.88;;;;;;;2.34;74.71;102897.50;5023596;28;20034;-76
2022/03/24 06:08:43;;;;;;;47.72;24.58;;;;;;;2.37;74.59;102903.81;5023403;28;20053;-75
2022/03/24 06:11:12;;;;;;;54.13;24.95;;;;;;;2.41;74.51;102897.28;5022015;28;20287;-75
2022/03/24 06:13:38;;;;;;;49.20;24.55;;;;;;;2.46;74.04;102907.97;5021713;28;20036;-75
2022/03/24 06:16:04;;;;;;;50.53;26.13;;;;;;;2.51;73.84;102906.75;5021815;28;20051;-75
2022/03/24 06:18:30;;;;;;;51.13;25.13;;;;;;;2.54;74.66;102902.75;5022614;28;20299;-75
2022/03/24 06:20:55;;;;;;;49.55;25.38;;;;;;;2.56;74.35;102913.19;5023379;28;20037;-75
2022/03/24 06:23:20;;;;;;;53.50;26.48;;;;;;;2.58;74.74;102911.69;5022491;28;20030;-75
2022/03/24 06:25:46;;;;;;;49.67;26.05;;;;;;;2.62;74.68;102906.00;5022081;28;20033;-75
2022/03/24 06:28:11;;;;;;;50.47;25.15;;;;;;;2.69;73.87;102917.75;5021232;28;20026;-75
2022/03/24 06:30:37;;;;;;;55.33;27.35;;;;;;;2.74;74.33;102911.38;5017904;28;20080;-75
2022/03/24 06:33:03;;;;;;;52.15;25.65;;;;;;;2.77;74.12;102912.53;5021186;28;20085;-75
2022/03/24 06:35:28;;;;;;;53.30;27.38;;;;;;;2.82;74.25;102907.78;5022982;28;20041;-75
2022/03/24 06:37:54;;;;;;;53.20;27.25;;;;;;;2.87;74.43;102911.69;5022221;28;20056;-75
2022/03/24 06:40:20;;;;;;;55.10;27.38;;;;;;;2.90;74.40;102908.47;5023293;28;20026;-75
2022/03/24 06:42:45;;;;;;;54.85;28.45;;;;;;;2.94;74.22;102914.03;5021695;28;20284;-75
2022/03/24 06:45:13;;;;;;;51.35;27.40;;;;;;;3.01;74.26;102912.88;5022476;28;20272;-75
2022/03/24 06:47:40;;;;;;;50.72;26.42;;;;;;;3.08;74.19;102910.06;5021848;28;20037;-75
2022/03/24 06:50:12;;;;;;;56.95;28.63;;;;;;;3.22;74.57;102916.44;5021340;28;20220;-76
2022/03/24 06:52:38;;;;;;;55.63;27.15;;;;;;;3.86;74.13;102909.81;5018654;28;20114;-76
2022/03/24 06:55:05;;;;;;;57.45;27.48;;;;;;;4.86;70.28;102901.63;5021722;28;20030;-76
2022/03/24 06:57:31;;;;;;;56.63;28.88;;;;;;;5.90;67.52;102913.13;5021543;28;20034;-76
2022/03/24 06:59:56;;;;;;;51.67;26.38;;;;;;;6.63;65.39;102901.28;5021205;28;20184;-76
2022/03/24 07:02:21;;;;;;;49.78;26.38;;;;;;;7.19;62.82;102900.97;5016876;28;20030;-76
2022/03/24 07:04:47;;;;;;;52.97;26.70;;;;;;;7.67;61.76;102896.50;5016047;28;20049;-76
2022/03/24 07:07:12;;;;;;;49.33;27.67;;;;;;;8.35;61.37;102907.13;5021736;28;20030;-78
2022/03/24 07:09:38;;;;;;;49.42;28.33;;;;;;;9.22;59.89;102905.81;5021703;28;20068;-79
2022/03/24 07:12:03;;;;;;;50.88;28.58;;;;;;;9.97;57.19;102905.06;5021556;28;20034;-79
2022/03/24 07:14:29;;;;;;;49.38;28.88;;;;;;;10.50;55.37;102896.91;5018613;28;20107;-79
2022/03/24 07:16:54;;;;;;;50.22;28.27;;;;;;;11.04;54.01;102902.50;5021169;28;20093;-79
2022/03/24 07:19:19;;;;;;;49.05;28.20;;;;;;;11.57;52.36;102905.28;5013552;28;20089;-79
2022/03/24 07:21:45;;;;;;;53.88;29.35;;;;;;;12.14;51.13;102908.28;5021318;28;20273;-79
2022/03/24 07:24:11;;;;;;;47.13;28.38;;;;;;;12.33;51.33;102907.47;5020985;28;20061;-79
2022/03/24 07:26:36;;;;;;;54.28;29.20;;;;;;;12.56;50.46;102908.59;5019723;28;20088;-79
2022/03/24 07:29:01;;;;;;;50.13;30.27;;;;;;;13.71;48.33;102907.81;5018871;28;20347;-79
2022/03/24 07:31:27;;;;;;;53.20;30.38;;;;;;;14.76;45.74;102906.94;5014317;28;20152;-79
2022/03/24 07:33:56;;;;;;;50.47;29.95;;;;;;;15.19;44.36;102912.06;5021999;28;20028;-79
2022/03/24 07:36:22;;;;;;;50.72;31.33;;;;;;;15.25;44.38;102907.94;5020406;28;20060;-79
2022/03/24 07:38:52;;;;;;;53.47;31.92;;;;;;;14.83;45.01;102901.94;5021477;28;20032;-79
2022/03/24 07:41:17;;;;;;;54.25;33.20;;;;;;;14.76;45.80;102901.69;5022225;28;20069;-79
2022/03/24 07:43:42;;;;;;;58.20;34.72;;;;;;;14.69;44.90;102909.28;5022024;28;20026;-79
2022/03/24 07:46:08;;;;;;;61.70;36.03;;;;;;;14.04;46.23;102917.97;5020173;28;20344;-79
2022/03/24 07:48:33;;;;;;;64.40;36.67;;;;;;;13.27;47.79;102914.53;5020223;28;20037;-79
2022/03/24 07:51:02;;;;;;;65.53;36.13;;;;;;;12.55;49.47;102914.63;5021097;28;20192;-79
2022/03/24 07:53:27;;;;;;;72.50;39.53;;;;;;;11.91;51.71;102913.19;5018251;28;20049;-79
2022/03/24 07:55:55;;;;;;;73.33;39.93;;;;;;;11.36;52.93;102919.00;5021240;28;20065;-78
2022/03/24 07:58:21;;;;;;;74.95;39.72;;;;;;;11.00;53.95;102917.91;5020559;28;20526;-78
2022/03/24 08:00:47;;;;;;;78.45;41.13;;;;;;;10.67;56.08;102920.41;5020807;28;20084;-78
2022/03/24 08:03:15;;;;;;;87.00;42.13;;;;;;;10.44;55.68;102928.72;5021600;28;20803;-78
2022/03/24 08:05:41;;;;;;;87.35;44.13;;;;;;;10.30;56.01;102924.38;5021832;28;20022;-78
2022/03/24 08:08:09;;;;;;;86.07;43.03;;;;;;;10.22;56.10;102925.63;5021365;28;20196;-77
2022/03/24 08:10:35;;;;;;;91.45;43.20;;;;;;;10.14;56.07;102929.47;5021186;28;20127;-77
2022/03/24 08:13:01;;;;;;;84.35;41.50;;;;;;;10.13;55.56;102928.59;5022495;28;20029;-77
2022/03/24 08:15:26;;;;;;;80.05;39.45;;;;;;;10.13;53.64;102930.31;5022547;28;20025;-77
2022/03/24 08:17:51;;;;;;;77.80;38.83;;;;;;;10.12;50.88;102924.19;5021386;28;20018;-77
2022/03/24 08:20:17;;;;;;;90.65;39.42;;;;;;;10.15;50.62;102928.69;5021293;28;20102;-77
2022/03/24 08:22:42;;;;;;;85.55;39.17;;;;;;;10.19;52.38;102931.56;5015398;28;20068;-77
2022/03/24 08:25:11;;;;;;;85.03;38.67;;;;;;;10.25;52.98;102934.53;5021978;28;20048;-77
2022/03/24 08:27:36;;;;;;;83.05;41.10;;;;;;;10.33;54.69;102934.09;5020570;28;20040;-77
2022/03/24 08:30:05;;;;;;;85.45;40.67;;;;;;;10.41;54.63;102938.06;5021303;28;20029;-78
2022/03/24 08:32:30;;;;;;;92.07;41.67;;;;;;;10.50;52.89;102937.69;5016819;28;20041;-77
2022/03/24 08:34:56;;;;;;;85.72;40.47;;;;;;;10.61;54.44;102934.88;5018156;28;20018;-77
2022/03/24 08:37:21;;;;;;;94.65;41.58;;;;;;;10.74;55.33;102936.47;5019861;28;20061;-77
2022/03/24 08:39:46;;;;;;;89.97;42.60;;;;;;;10.84;54.47;102940.50;5019853;28;20235;-77
2022/03/24 08:42:12;;;;;;;85.30;41.08;;;;;;;10.92;54.87;102931.41;5019291;28;20030;-77
2022/03/24 08:44:37;;;;;;;93.50;41.67;;;;;;;11.02;55.22;102927.63;5020182;28;20026;-77
2022/03/24 08:47:02;;;;;;;89.60;41.15;;;;;;;11.13;54.40;102925.59;5022155;28;20112;-77
2022/03/24 08:49:28;;;;;;;89.53;40.75;;;;;;;11.23;52.16;102935.72;5015245;28;20033;-77
2022/03/24 08:51:53;;;;;;;88.93;40.38;;;;;;;11.36;52.92;102926.84;5019090;28;20261;-77
2022/03/24 08:54:19;;;;;;;86.13;38.65;;;;;;;11.46;50.37;102934.34;5017802;28;20056;-77
2022/03/24 08:56:44;;;;;;;85.20;39.15;;;;;;;11.56;52.23;102934.84;5018091;28;20277;-77
2022/03/24 08:59:10;;;;;;;85.82;40.13;;;;;;;11.69;53.83;102923.31;5019600;28;20192;-77
2022/03/24 09:01:38;;;;;;;91.20;41.30;;;;;;;11.80;51.37;102932.63;5021820;28;20065;-77
2022/03/24 09:04:03;;;;;;;84.18;37.78;;;;;;;11.91;49.36;102934.06;5024454;28;20029;-77
2022/03/24 09:06:28;;;;;;;85.43;38.20;;;;;;;12.02;46.31;102931.16;5024728;28;20026;-77
2022/03/24 09:08:54;;;;;;;83.93;38.22;;;;;;;12.10;47.26;102932.44;5024319;28;20369;-77
2022/03/24 09:11:19;;;;;;;77.22;35.58;;;;;;;12.17;45.11;102947.63;5023861;28;20069;-77
2022/03/24 09:13:45;;;;;;;75.68;35.42;;;;;;;12.35;49.21;102945.03;5023595;28;20030;-77
2022/03/24 09:16:11;;;;;;;73.15;35.50;;;;;;;12.55;48.04;102937.28;5024968;28;20034;-77
2022/03/24 09:18:37;;;;;;;80.38;37.88;;;;;;;12.70;45.27;102936.31;5024596;28;20065;-77
2022/03/24 09:21:02;;;;;;;74.72;36.22;;;;;;;12.81;43.15;102941.16;5024203;28;20257;-77
2022/03/24 09:23:29;;;;;;;74.35;35.15;;;;;;;12.92;45.98;102939.06;5025717;28;20022;-78
2022/03/24 09:25:55;;;;;;;76.97;36.90;;;;;;;13.04;44.79;102943.16;5024811;28;20045;-78
2022/03/24 09:28:21;;;;;;;73.50;35.35;;;;;;;13.17;43.63;102941.13;5024976;28;20080;-78
2022/03/24 09:30:48;;;;;;;80.07;37.25;;;;;;;13.35;46.48;102944.63;5023852;28;20038;-78
2022/03/24 09:33:14;;;;;;;74.30;37.03;;;;;;;13.46;45.30;102939.88;5025140;28;20149;-78
2022/03/24 09:35:40;;;;;;;83.47;37.72;;;;;;;13.57;43.60;102945.63;5023535;28;20250;-76
2022/03/24 09:38:05;;;;;;;76.82;34.85;;;;;;;13.65;41.26;102946.84;5023075;28;20033;-77
2022/03/24 09:40:31;;;;;;;75.63;35.75;;;;;;;13.72;43.36;102948.91;5020701;28;20042;-77
2022/03/24 09:42:57;;;;;;;74.53;36.65;;;;;;;13.85;45.28;102941.59;5019681;28;20081;-77
2022/03/24 09:45:25;;;;;;;81.75;37.35;;;;;;;14.02;42.64;102944.94;5022162;28;20040;-77
2022/03/24 09:47:50;;;;;;;84.05;37.83;;;;;;;14.13;40.52;102948.91;5024623;28;20032;-78
2022/03/24 09:50:17;;;;;;;80.10;36.55;;;;;;;14.25;41.10;102943.28;5022371;28;20034;-77
2022/03/24 09:52:43;;;;;;;75.07;34.92;;;;;;;14.35;39.35;102950.75;5024665;28;20065;-77
2022/03/24 09:55:09;;;;;;;70.50;32.63;;;;;;;14.42;36.53;102946.63;5023752;28;20184;-77
2022/03/24 09:57:36;;;;;;;69.30;32.60;;;;;;;14.57;38.05;102938.47;5022978;28;20022;-76
2022/03/24 10:00:03;;;;;;;65.05;31.05;;;;;;;14.74;37.36;102939.22;5022323;28;20033;-73
2022/03/24 10:02:29;;;;;;;63.97;30.92;;;;;;;14.85;34.94;102940.53;5022616;28;20119;-73
2022/03/24 10:05:01;;;;;;;66.45;31.65;;;;;;;14.94;33.93;102940.00;5022314;28;20025;-73
2022/03/24 10:07:27;;;;;;;68.32;31.52;;;;;;;15.00;36.20;102939.34;5023032;28;20026;-73
2022/03/24 10:09:56;;;;;;;73.43;32.88;;;;;;;15.10;37.26;102939.75;5019034;28;20026;-73
2022/03/24 10:12:31;;;;;;;70.05;32.38;;;;;;;15.17;34.07;102940.00;5022266;28;20048;-73
2022/03/24 10:15:05;;;;;;;65.57;32.92;;;;;;;15.25;33.63;102934.22;5023056;28;20034;-73
2022/03/24 10:17:31;;;;;;;68.45;32.92;;;;;;;15.32;32.85;102935.31;5024476;28;20054;-73
2022/03/24 10:20:03;;;;;;;68.65;33.95;;;;;;;15.42;36.01;102937.44;5023999;28;20038;-73
2022/03/24 10:22:29;;;;;;;71.95;33.03;;;;;;;15.54;36.59;102928.22;5022256;28;20033;-73
2022/03/24 10:24:55;;;;;;;70.38;34.13;;;;;;;15.63;34.22;102921.59;5023411;28;20029;-73
2022/03/24 10:27:28;;;;;;;66.47;31.98;;;;;;;15.75;34.16;102920.25;5023715;28;20041;-73
2022/03/24 10:29:56;;;;;;;64.80;32.20;;;;;;;15.78;30.10;102917.72;5023164;28;20288;-73
2022/03/24 10:32:27;;;;;;;65.40;32.67;;;;;;;15.78;31.02;102913.38;5022677;28;20108;-73
2022/03/24 10:34:57;;;;;;;65.03;31.48;;;;;;;15.81;32.05;102915.22;5024362;28;20108;-73
2022/03/24 10:37:25;;;;;;;65.93;32.60;;;;;;;15.85;32.51;102924.13;5023438;28;20033;-73
2022/03/24 10:39:59;;;;;;;66.60;33.75;;;;;;;15.92;32.80;102927.03;5023855;28;20097;-73
2022/03/24 10:42:31;;;;;;;65.25;31.73;;;;;;;15.99;30.21;102923.78;5018908;28;20049;-72
2022/03/24 10:45:20;;;;;;;71.03;33.25;;;;;;;16.07;32.29;102924.03;5023266;28;20041;-73
2022/03/24 10:47:52;;;;;;;63.10;30.42;;;;;;;16.13;30.06;102924.25;5022791;28;20025;-73
2022/03/24 10:50:26;;;;;;;63.15;30.67;;;;;;;16.20;30.03;102913.94;5019672;28;20045;-73
2022/03/24 10:52:53;;;;;;;67.00;32.42;;;;;;;16.21;29.07;102918.38;5022551;28;20248;-73
2022/03/24 10:55:30;;;;;;;61.63;30.17;;;;;;;16.28;31.07;102918.59;5023116;28;20225;-73
2022/03/24 10:57:57;;;;;;;60.00;29.00;;;;;;;16.40;30.83;102910.22;5022125;28;20022;-72
2022/03/24 11:00:22;;;;;;;52.10;25.45;;;;;;;16.51;29.71;102916.72;5022247;28;20034;-72
2022/03/24 11:02:48;;;;;;;55.30;26.90;;;;;;;16.58;30.90;102912.53;5021836;28;20026;-73
2022/03/24 11:05:13;;;;;;;51.67;25.88;;;;;;;16.63;30.00;102915.34;5022561;28;20199;-73
2022/03/24 11:07:39;;;;;;;53.30;25.60;;;;;;;16.60;28.53;102916.13;5023226;28;20025;-72
2022/03/24 11:10:11;;;;;;;53.22;25.30;;;;;;;16.60;30.11;102916.13;5023034;28;20092;-72
2022/03/24 11:12:38;;;;;;;55.03;25.83;;;;;;;16.65;29.17;102906.63;5022807;28;20018;-72